sensor_id;sensor_type;location;lat;lon;timestamp;P1;durP1;ratioP1;P2;durP2;ratioP2
34242;SDS011;20504;43.214;27.920;2023-01-28T00:02:05;8.00;;;5.72;;
34242;SDS011;20504;43.214;27.920;2023-01-28T00:04:30;7.17;;;5.37;;
34242;SDS011;20504;43.214;27.920;2023-01-28T00:06:56;4.70;;;3.77;;
34242;SDS011;20504;43.214;27.920;2023-01-28T00:09:22;7.73;;;5.30;;
34242;SDS011;20504;43.214;27.920;2023-01-28T00:11:47;6.27;;;4.73;;
34242;SDS011;20504;43.214;27.920;2023-01-28T00:14:12;9.27;;;5.23;;
34242;SDS011;20504;43.214;27.920;2023-01-28T00:16:38;5.87;;;4.53;;
34242;SDS011;20504;43.214;27.920;2023-01-28T00:19:03;6.97;;;4.60;;
34242;SDS011;20504;43.214;27.920;2023-01-28T00:21:29;6.50;;;4.43;;
34242;SDS011;20504;43.214;27.920;2023-01-28T00:23:55;3.97;;;3.10;;
34242;SDS011;20504;43.214;27.920;2023-01-28T00:26:21;8.15;;;3.97;;
34242;SDS011;20504;43.214;27.920;2023-01-28T00:28:47;5.53;;;3.47;;
34242;SDS011;20504;43.214;27.920;2023-01-28T00:31:17;5.60;;;3.40;;
34242;SDS011;20504;43.214;27.920;2023-01-28T00:33:48;3.90;;;2.95;;
34242;SDS011;20504;43.214;27.920;2023-01-28T00:36:15;4.45;;;2.83;;
34242;SDS011;20504;43.214;27.920;2023-01-28T00:41:16;3.40;;;2.90;;
34242;SDS011;20504;43.214;27.920;2023-01-28T00:43:46;3.97;;;2.97;;
34242;SDS011;20504;43.214;27.920;2023-01-28T00:48:38;4.55;;;3.25;;
34242;SDS011;20504;43.214;27.920;2023-01-28T00:51:05;6.55;;;3.20;;
34242;SDS011;20504;43.214;27.920;2023-01-28T00:53:32;5.70;;;3.47;;
34242;SDS011;20504;43.214;27.920;2023-01-28T00:56:01;8.27;;;4.00;;
34242;SDS011;20504;43.214;27.920;2023-01-28T00:58:27;4.90;;;3.53;;
34242;SDS011;20504;43.214;27.920;2023-01-28T01:00:53;4.83;;;3.50;;
34242;SDS011;20504;43.214;27.920;2023-01-28T01:03:18;2.63;;;2.40;;
34242;SDS011;20504;43.214;27.920;2023-01-28T01:05:44;5.13;;;3.27;;
34242;SDS011;20504;43.214;27.920;2023-01-28T01:08:10;4.20;;;2.87;;
34242;SDS011;20504;43.214;27.920;2023-01-28T01:10:36;8.90;;;3.77;;
34242;SDS011;20504;43.214;27.920;2023-01-28T01:13:04;4.88;;;3.30;;
34242;SDS011;20504;43.214;27.920;2023-01-28T01:15:30;3.95;;;3.08;;
34242;SDS011;20504;43.214;27.920;2023-01-28T01:17:56;7.17;;;3.93;;
34242;SDS011;20504;43.214;27.920;2023-01-28T01:22:49;4.90;;;3.38;;
34242;SDS011;20504;43.214;27.920;2023-01-28T01:25:15;6.73;;;3.90;;
34242;SDS011;20504;43.214;27.920;2023-01-28T01:27:42;6.28;;;3.90;;
34242;SDS011;20504;43.214;27.920;2023-01-28T01:30:10;7.68;;;4.15;;
34242;SDS011;20504;43.214;27.920;2023-01-28T01:32:36;6.25;;;4.30;;
34242;SDS011;20504;43.214;27.920;2023-01-28T01:35:03;6.13;;;4.10;;
34242;SDS011;20504;43.214;27.920;2023-01-28T01:37:30;8.07;;;4.88;;
34242;SDS011;20504;43.214;27.920;2023-01-28T01:39:56;7.77;;;4.90;;
34242;SDS011;20504;43.214;27.920;2023-01-28T01:42:21;6.73;;;4.80;;
34242;SDS011;20504;43.214;27.920;2023-01-28T01:47:35;9.70;;;5.05;;
34242;SDS011;20504;43.214;27.920;2023-01-28T01:50:23;9.05;;;4.85;;
34242;SDS011;20504;43.214;27.920;2023-01-28T01:52:56;7.20;;;5.10;;
34242;SDS011;20504;43.214;27.920;2023-01-28T01:55:27;6.82;;;4.68;;
34242;SDS011;20504;43.214;27.920;2023-01-28T01:57:55;11.00;;;5.50;;
34242;SDS011;20504;43.214;27.920;2023-01-28T02:00:24;7.93;;;4.82;;
34242;SDS011;20504;43.214;27.920;2023-01-28T02:02:50;8.53;;;4.63;;
34242;SDS011;20504;43.214;27.920;2023-01-28T02:05:18;8.90;;;5.07;;
34242;SDS011;20504;43.214;27.920;2023-01-28T02:07:45;7.65;;;5.10;;
34242;SDS011;20504;43.214;27.920;2023-01-28T02:10:14;8.35;;;5.13;;
34242;SDS011;20504;43.214;27.920;2023-01-28T02:12:44;6.97;;;4.55;;
34242;SDS011;20504;43.214;27.920;2023-01-28T02:15:21;7.80;;;4.47;;
34242;SDS011;20504;43.214;27.920;2023-01-28T02:17:49;6.80;;;4.18;;
34242;SDS011;20504;43.214;27.920;2023-01-28T02:28:33;8.07;;;4.70;;
34242;SDS011;20504;43.214;27.920;2023-01-28T02:31:10;6.72;;;4.18;;
34242;SDS011;20504;43.214;27.920;2023-01-28T02:33:45;6.80;;;4.00;;
34242;SDS011;20504;43.214;27.920;2023-01-28T02:36:34;7.97;;;4.30;;
34242;SDS011;20504;43.214;27.920;2023-01-28T02:39:13;6.47;;;4.25;;
34242;SDS011;20504;43.214;27.920;2023-01-28T02:41:47;8.07;;;4.50;;
34242;SDS011;20504;43.214;27.920;2023-01-28T02:44:17;7.70;;;3.88;;
34242;SDS011;20504;43.214;27.920;2023-01-28T02:46:43;6.23;;;3.07;;
34242;SDS011;20504;43.214;27.920;2023-01-28T02:49:32;7.20;;;3.67;;
34242;SDS011;20504;43.214;27.920;2023-01-28T02:58:13;6.53;;;4.10;;
34242;SDS011;20504;43.214;27.920;2023-01-28T03:03:36;6.47;;;4.20;;
34242;SDS011;20504;43.214;27.920;2023-01-28T03:08:49;7.63;;;4.60;;
34242;SDS011;20504;43.214;27.920;2023-01-28T03:11:41;7.95;;;5.05;;
34242;SDS011;20504;43.214;27.920;2023-01-28T03:14:27;6.40;;;4.25;;
34242;SDS011;20504;43.214;27.920;2023-01-28T03:17:20;7.95;;;4.75;;
34242;SDS011;20504;43.214;27.920;2023-01-28T03:20:14;7.30;;;4.47;;
34242;SDS011;20504;43.214;27.920;2023-01-28T03:23:00;8.70;;;4.47;;
34242;SDS011;20504;43.214;27.920;2023-01-28T03:25:51;9.02;;;5.22;;
34242;SDS011;20504;43.214;27.920;2023-01-28T03:31:23;9.88;;;5.70;;
34242;SDS011;20504;43.214;27.920;2023-01-28T03:34:08;8.10;;;5.10;;
34242;SDS011;20504;43.214;27.920;2023-01-28T03:36:53;10.25;;;5.50;;
34242;SDS011;20504;43.214;27.920;2023-01-28T03:39:24;9.90;;;6.18;;
34242;SDS011;20504;43.214;27.920;2023-01-28T03:41:54;9.00;;;5.13;;
34242;SDS011;20504;43.214;27.920;2023-01-28T03:44:22;9.98;;;5.82;;
34242;SDS011;20504;43.214;27.920;2023-01-28T03:47:08;10.38;;;5.40;;
34242;SDS011;20504;43.214;27.920;2023-01-28T03:49:36;10.15;;;5.25;;
34242;SDS011;20504;43.214;27.920;2023-01-28T03:52:03;11.57;;;6.25;;
34242;SDS011;20504;43.214;27.920;2023-01-28T03:54:28;13.07;;;6.17;;
34242;SDS011;20504;43.214;27.920;2023-01-28T03:56:54;9.40;;;5.77;;
34242;SDS011;20504;43.214;27.920;2023-01-28T03:59:19;8.70;;;5.63;;
34242;SDS011;20504;43.214;27.920;2023-01-28T04:01:44;10.03;;;5.67;;
34242;SDS011;20504;43.214;27.920;2023-01-28T04:04:10;10.67;;;5.57;;
34242;SDS011;20504;43.214;27.920;2023-01-28T04:06:50;9.38;;;5.75;;
34242;SDS011;20504;43.214;27.920;2023-01-28T04:09:16;11.02;;;6.22;;
34242;SDS011;20504;43.214;27.920;2023-01-28T04:11:41;12.17;;;6.30;;
34242;SDS011;20504;43.214;27.920;2023-01-28T04:14:07;10.60;;;6.20;;
34242;SDS011;20504;43.214;27.920;2023-01-28T04:16:32;9.50;;;6.33;;
34242;SDS011;20504;43.214;27.920;2023-01-28T04:18:58;9.13;;;5.67;;
34242;SDS011;20504;43.214;27.920;2023-01-28T04:21:23;9.23;;;5.53;;
34242;SDS011;20504;43.214;27.920;2023-01-28T04:23:49;7.47;;;4.23;;
34242;SDS011;20504;43.214;27.920;2023-01-28T04:26:15;7.57;;;3.97;;
34242;SDS011;20504;43.214;27.920;2023-01-28T04:28:40;10.07;;;6.37;;
34242;SDS011;20504;43.214;27.920;2023-01-28T04:31:06;9.93;;;5.00;;
34242;SDS011;20504;43.214;27.920;2023-01-28T04:33:31;10.00;;;6.00;;
34242;SDS011;20504;43.214;27.920;2023-01-28T04:35:57;10.13;;;6.10;;
34242;SDS011;20504;43.214;27.920;2023-01-28T04:38:22;9.90;;;6.03;;
34242;SDS011;20504;43.214;27.920;2023-01-28T04:40:48;9.37;;;5.90;;
34242;SDS011;20504;43.214;27.920;2023-01-28T04:43:15;13.27;;;6.05;;
34242;SDS011;20504;43.214;27.920;2023-01-28T04:45:40;9.53;;;5.80;;
34242;SDS011;20504;43.214;27.920;2023-01-28T04:48:06;9.23;;;5.70;;
34242;SDS011;20504;43.214;27.920;2023-01-28T04:50:31;8.70;;;6.03;;
34242;SDS011;20504;43.214;27.920;2023-01-28T04:52:56;9.97;;;6.07;;
34242;SDS011;20504;43.214;27.920;2023-01-28T04:55:22;6.70;;;4.30;;
34242;SDS011;20504;43.214;27.920;2023-01-28T04:57:47;6.27;;;3.97;;
34242;SDS011;20504;43.214;27.920;2023-01-28T05:00:13;9.13;;;5.73;;
34242;SDS011;20504;43.214;27.920;2023-01-28T05:02:39;11.20;;;5.77;;
34242;SDS011;20504;43.214;27.920;2023-01-28T05:05:04;9.57;;;6.10;;
34242;SDS011;20504;43.214;27.920;2023-01-28T05:07:33;12.68;;;7.35;;
34242;SDS011;20504;43.214;27.920;2023-01-28T05:09:59;10.63;;;6.43;;
34242;SDS011;20504;43.214;27.920;2023-01-28T05:12:24;6.83;;;4.23;;
34242;SDS011;20504;43.214;27.920;2023-01-28T05:14:50;8.10;;;5.57;;
34242;SDS011;20504;43.214;27.920;2023-01-28T05:17:15;8.47;;;5.63;;
34242;SDS011;20504;43.214;27.920;2023-01-28T05:19:40;6.07;;;3.97;;
34242;SDS011;20504;43.214;27.920;2023-01-28T05:22:06;8.23;;;4.87;;
34242;SDS011;20504;43.214;27.920;2023-01-28T05:24:31;8.27;;;5.03;;
34242;SDS011;20504;43.214;27.920;2023-01-28T05:26:57;8.97;;;5.60;;
34242;SDS011;20504;43.214;27.920;2023-01-28T05:29:22;9.63;;;5.80;;
34242;SDS011;20504;43.214;27.920;2023-01-28T05:31:48;9.73;;;5.37;;
34242;SDS011;20504;43.214;27.920;2023-01-28T05:34:13;8.33;;;5.00;;
34242;SDS011;20504;43.214;27.920;2023-01-28T05:36:39;8.23;;;5.80;;
34242;SDS011;20504;43.214;27.920;2023-01-28T05:39:05;8.55;;;5.43;;
34242;SDS011;20504;43.214;27.920;2023-01-28T05:41:31;8.25;;;5.65;;
34242;SDS011;20504;43.214;27.920;2023-01-28T05:43:57;6.85;;;4.55;;
34242;SDS011;20504;43.214;27.920;2023-01-28T05:46:23;5.37;;;4.30;;
34242;SDS011;20504;43.214;27.920;2023-01-28T05:48:49;6.95;;;5.10;;
34242;SDS011;20504;43.214;27.920;2023-01-28T05:51:15;8.32;;;5.25;;
34242;SDS011;20504;43.214;27.920;2023-01-28T05:53:41;9.63;;;6.03;;
34242;SDS011;20504;43.214;27.920;2023-01-28T05:56:07;8.60;;;5.83;;
34242;SDS011;20504;43.214;27.920;2023-01-28T05:58:33;7.90;;;6.07;;
34242;SDS011;20504;43.214;27.920;2023-01-28T06:00:58;9.87;;;6.10;;
34242;SDS011;20504;43.214;27.920;2023-01-28T06:03:24;8.90;;;5.53;;
34242;SDS011;20504;43.214;27.920;2023-01-28T06:05:49;6.27;;;4.37;;
34242;SDS011;20504;43.214;27.920;2023-01-28T06:08:15;6.57;;;4.37;;
34242;SDS011;20504;43.214;27.920;2023-01-28T06:10:40;11.17;;;6.40;;
34242;SDS011;20504;43.214;27.920;2023-01-28T06:13:06;9.87;;;6.20;;
34242;SDS011;20504;43.214;27.920;2023-01-28T06:15:31;8.63;;;5.90;;
34242;SDS011;20504;43.214;27.920;2023-01-28T06:17:57;9.87;;;6.67;;
34242;SDS011;20504;43.214;27.920;2023-01-28T06:20:23;9.35;;;6.43;;
34242;SDS011;20504;43.214;27.920;2023-01-28T06:22:49;6.72;;;4.93;;
34242;SDS011;20504;43.214;27.920;2023-01-28T06:25:16;8.70;;;5.88;;
34242;SDS011;20504;43.214;27.920;2023-01-28T06:27:43;9.65;;;6.78;;
34242;SDS011;20504;43.214;27.920;2023-01-28T06:30:09;8.82;;;6.13;;
34242;SDS011;20504;43.214;27.920;2023-01-28T06:32:35;9.75;;;5.97;;
34242;SDS011;20504;43.214;27.920;2023-01-28T06:35:01;6.40;;;5.13;;
34242;SDS011;20504;43.214;27.920;2023-01-28T06:37:26;10.10;;;6.97;;
34242;SDS011;20504;43.214;27.920;2023-01-28T06:39:52;11.13;;;6.87;;
34242;SDS011;20504;43.214;27.920;2023-01-28T06:42:18;10.77;;;6.87;;
34242;SDS011;20504;43.214;27.920;2023-01-28T06:44:43;11.68;;;7.03;;
34242;SDS011;20504;43.214;27.920;2023-01-28T06:47:09;12.87;;;7.40;;
34242;SDS011;20504;43.214;27.920;2023-01-28T06:49:35;11.23;;;7.13;;
34242;SDS011;20504;43.214;27.920;2023-01-28T06:52:01;11.38;;;6.95;;
34242;SDS011;20504;43.214;27.920;2023-01-28T06:54:28;10.75;;;7.28;;
34242;SDS011;20504;43.214;27.920;2023-01-28T06:56:54;15.83;;;7.60;;
34242;SDS011;20504;43.214;27.920;2023-01-28T06:59:19;11.80;;;7.80;;
34242;SDS011;20504;43.214;27.920;2023-01-28T07:01:45;11.13;;;6.93;;
34242;SDS011;20504;43.214;27.920;2023-01-28T07:04:10;11.07;;;7.27;;
34242;SDS011;20504;43.214;27.920;2023-01-28T07:06:36;11.67;;;7.57;;
34242;SDS011;20504;43.214;27.920;2023-01-28T07:09:01;11.23;;;7.03;;
34242;SDS011;20504;43.214;27.920;2023-01-28T07:11:27;13.57;;;8.00;;
34242;SDS011;20504;43.214;27.920;2023-01-28T07:13:52;15.27;;;9.03;;
34242;SDS011;20504;43.214;27.920;2023-01-28T07:16:18;15.80;;;8.67;;
34242;SDS011;20504;43.214;27.920;2023-01-28T07:18:44;11.40;;;7.50;;
34242;SDS011;20504;43.214;27.920;2023-01-28T07:21:10;13.05;;;8.85;;
34242;SDS011;20504;43.214;27.920;2023-01-28T07:23:36;11.73;;;7.37;;
34242;SDS011;20504;43.214;27.920;2023-01-28T07:26:04;13.68;;;9.45;;
34242;SDS011;20504;43.214;27.920;2023-01-28T07:28:29;13.68;;;7.13;;
34242;SDS011;20504;43.214;27.920;2023-01-28T07:30:55;17.73;;;10.67;;
34242;SDS011;20504;43.214;27.920;2023-01-28T07:33:20;17.53;;;10.43;;
34242;SDS011;20504;43.214;27.920;2023-01-28T07:35:46;18.13;;;10.83;;
34242;SDS011;20504;43.214;27.920;2023-01-28T07:38:12;15.00;;;9.23;;
34242;SDS011;20504;43.214;27.920;2023-01-28T07:40:38;13.25;;;8.13;;
34242;SDS011;20504;43.214;27.920;2023-01-28T07:43:04;14.48;;;10.07;;
34242;SDS011;20504;43.214;27.920;2023-01-28T07:45:31;16.40;;;10.15;;
34242;SDS011;20504;43.214;27.920;2023-01-28T07:47:58;15.63;;;9.68;;
34242;SDS011;20504;43.214;27.920;2023-01-28T07:50:26;17.58;;;9.60;;
34242;SDS011;20504;43.214;27.920;2023-01-28T07:52:53;16.05;;;9.38;;
34242;SDS011;20504;43.214;27.920;2023-01-28T07:55:19;14.27;;;8.63;;
34242;SDS011;20504;43.214;27.920;2023-01-28T07:57:51;14.43;;;9.17;;
34242;SDS011;20504;43.214;27.920;2023-01-28T08:00:20;14.48;;;8.38;;
34242;SDS011;20504;43.214;27.920;2023-01-28T08:02:46;12.77;;;8.52;;
34242;SDS011;20504;43.214;27.920;2023-01-28T08:05:19;15.35;;;9.52;;
34242;SDS011;20504;43.214;27.920;2023-01-28T08:07:46;17.63;;;9.40;;
34242;SDS011;20504;43.214;27.920;2023-01-28T08:10:15;15.00;;;9.07;;
34242;SDS011;20504;43.214;27.920;2023-01-28T08:15:20;16.45;;;9.93;;
34242;SDS011;20504;43.214;27.920;2023-01-28T08:17:46;16.88;;;10.10;;
34242;SDS011;20504;43.214;27.920;2023-01-28T08:20:12;17.03;;;10.20;;
34242;SDS011;20504;43.214;27.920;2023-01-28T08:22:38;18.33;;;12.43;;
34242;SDS011;20504;43.214;27.920;2023-01-28T08:25:04;12.03;;;8.23;;
34242;SDS011;20504;43.214;27.920;2023-01-28T08:27:30;12.07;;;7.85;;
34242;SDS011;20504;43.214;27.920;2023-01-28T08:29:55;18.20;;;10.00;;
34242;SDS011;20504;43.214;27.920;2023-01-28T08:32:20;15.53;;;10.73;;
34242;SDS011;20504;43.214;27.920;2023-01-28T08:34:46;16.30;;;10.70;;
34242;SDS011;20504;43.214;27.920;2023-01-28T08:37:11;22.27;;;10.37;;
34242;SDS011;20504;43.214;27.920;2023-01-28T08:39:37;15.07;;;9.67;;
34242;SDS011;20504;43.214;27.920;2023-01-28T08:42:04;13.03;;;8.23;;
34242;SDS011;20504;43.214;27.920;2023-01-28T08:44:30;18.95;;;10.60;;
34242;SDS011;20504;43.214;27.920;2023-01-28T08:46:56;18.37;;;10.60;;
34242;SDS011;20504;43.214;27.920;2023-01-28T08:49:22;17.57;;;11.07;;
34242;SDS011;20504;43.214;27.920;2023-01-28T08:51:47;15.37;;;9.67;;
34242;SDS011;20504;43.214;27.920;2023-01-28T08:54:13;20.50;;;12.03;;
34242;SDS011;20504;43.214;27.920;2023-01-28T08:56:38;21.40;;;12.63;;
34242;SDS011;20504;43.214;27.920;2023-01-28T08:59:07;22.75;;;11.60;;
34242;SDS011;20504;43.214;27.920;2023-01-28T09:01:32;23.10;;;14.90;;
34242;SDS011;20504;43.214;27.920;2023-01-28T09:03:58;18.03;;;10.07;;
34242;SDS011;20504;43.214;27.920;2023-01-28T09:06:23;21.10;;;13.53;;
34242;SDS011;20504;43.214;27.920;2023-01-28T09:08:49;25.00;;;15.90;;
34242;SDS011;20504;43.214;27.920;2023-01-28T09:11:14;19.87;;;12.27;;
34242;SDS011;20504;43.214;27.920;2023-01-28T09:13:40;36.40;;;24.23;;
34242;SDS011;20504;43.214;27.920;2023-01-28T09:16:05;21.87;;;12.23;;
34242;SDS011;20504;43.214;27.920;2023-01-28T09:18:31;20.52;;;12.40;;
34242;SDS011;20504;43.214;27.920;2023-01-28T09:20:57;17.63;;;10.80;;
34242;SDS011;20504;43.214;27.920;2023-01-28T09:23:22;12.43;;;7.73;;
34242;SDS011;20504;43.214;27.920;2023-01-28T09:25:48;19.43;;;11.07;;
34242;SDS011;20504;43.214;27.920;2023-01-28T09:28:13;17.20;;;10.40;;
34242;SDS011;20504;43.214;27.920;2023-01-28T09:30:39;16.17;;;9.67;;
34242;SDS011;20504;43.214;27.920;2023-01-28T09:33:05;16.93;;;9.33;;
34242;SDS011;20504;43.214;27.920;2023-01-28T09:35:32;17.13;;;11.63;;
34242;SDS011;20504;43.214;27.920;2023-01-28T09:37:58;17.85;;;10.40;;
34242;SDS011;20504;43.214;27.920;2023-01-28T09:40:37;20.00;;;12.07;;
34242;SDS011;20504;43.214;27.920;2023-01-28T09:45:54;24.00;;;11.80;;
34242;SDS011;20504;43.214;27.920;2023-01-28T09:48:23;18.40;;;10.68;;
34242;SDS011;20504;43.214;27.920;2023-01-28T09:50:57;19.42;;;11.27;;
34242;SDS011;20504;43.214;27.920;2023-01-28T09:56:11;28.70;;;11.50;;
34242;SDS011;20504;43.214;27.920;2023-01-28T09:58:40;22.08;;;13.07;;
34242;SDS011;20504;43.214;27.920;2023-01-28T10:12:33;31.30;;;17.55;;
34242;SDS011;20504;43.214;27.920;2023-01-28T10:18:32;23.25;;;13.00;;
34242;SDS011;20504;43.214;27.920;2023-01-28T10:21:25;22.17;;;13.23;;
34242;SDS011;20504;43.214;27.920;2023-01-28T10:26:41;21.70;;;13.07;;
34242;SDS011;20504;43.214;27.920;2023-01-28T10:29:16;21.50;;;12.70;;
34242;SDS011;20504;43.214;27.920;2023-01-28T10:31:50;21.00;;;12.93;;
34242;SDS011;20504;43.214;27.920;2023-01-28T10:34:18;24.00;;;13.65;;
34242;SDS011;20504;43.214;27.920;2023-01-28T10:36:44;23.17;;;12.88;;
34242;SDS011;20504;43.214;27.920;2023-01-28T10:39:12;24.40;;;14.02;;
34242;SDS011;20504;43.214;27.920;2023-01-28T10:41:39;23.33;;;13.50;;
34242;SDS011;20504;43.214;27.920;2023-01-28T10:44:07;20.57;;;12.23;;
34242;SDS011;20504;43.214;27.920;2023-01-28T10:46:41;22.55;;;13.23;;
34242;SDS011;20504;43.214;27.920;2023-01-28T10:51:41;22.88;;;13.57;;
34242;SDS011;20504;43.214;27.920;2023-01-28T10:54:20;22.77;;;13.38;;
34242;SDS011;20504;43.214;27.920;2023-01-28T10:56:48;21.58;;;13.90;;
34242;SDS011;20504;43.214;27.920;2023-01-28T10:59:22;25.17;;;15.05;;
34242;SDS011;20504;43.214;27.920;2023-01-28T11:02:01;24.15;;;14.38;;
34242;SDS011;20504;43.214;27.920;2023-01-28T11:04:34;24.58;;;14.38;;
34242;SDS011;20504;43.214;27.920;2023-01-28T11:07:01;23.88;;;14.05;;
34242;SDS011;20504;43.214;27.920;2023-01-28T11:09:29;25.58;;;15.18;;
34242;SDS011;20504;43.214;27.920;2023-01-28T11:12:09;21.90;;;14.18;;
34242;SDS011;20504;43.214;27.920;2023-01-28T11:14:52;23.65;;;14.20;;
34242;SDS011;20504;43.214;27.920;2023-01-28T11:17:23;30.23;;;16.25;;
34242;SDS011;20504;43.214;27.920;2023-01-28T11:19:51;27.02;;;14.88;;
34242;SDS011;20504;43.214;27.920;2023-01-28T11:22:23;29.90;;;17.83;;
34242;SDS011;20504;43.214;27.920;2023-01-28T11:24:50;26.08;;;15.43;;
34242;SDS011;20504;43.214;27.920;2023-01-28T11:27:16;24.40;;;15.07;;
34242;SDS011;20504;43.214;27.920;2023-01-28T11:29:48;25.98;;;13.98;;
34242;SDS011;20504;43.214;27.920;2023-01-28T11:32:18;24.60;;;14.35;;
34242;SDS011;20504;43.214;27.920;2023-01-28T11:34:51;27.67;;;16.00;;
34242;SDS011;20504;43.214;27.920;2023-01-28T11:37:21;25.25;;;15.52;;
34242;SDS011;20504;43.214;27.920;2023-01-28T11:39:48;27.00;;;16.30;;
34242;SDS011;20504;43.214;27.920;2023-01-28T11:42:48;35.17;;;18.25;;
34242;SDS011;20504;43.214;27.920;2023-01-28T11:45:15;27.90;;;16.35;;
34242;SDS011;20504;43.214;27.920;2023-01-28T11:47:48;31.15;;;17.70;;
34242;SDS011;20504;43.214;27.920;2023-01-28T11:50:25;33.67;;;17.65;;
34242;SDS011;20504;43.214;27.920;2023-01-28T11:53:08;32.70;;;19.55;;
34242;SDS011;20504;43.214;27.920;2023-01-28T11:58:21;33.88;;;20.90;;
34242;SDS011;20504;43.214;27.920;2023-01-28T12:09:25;26.58;;;15.73;;
34242;SDS011;20504;43.214;27.920;2023-01-28T12:17:41;31.80;;;17.75;;
34242;SDS011;20504;43.214;27.920;2023-01-28T12:22:49;30.83;;;17.25;;
34242;SDS011;20504;43.214;27.920;2023-01-28T12:28:40;32.55;;;18.85;;
34242;SDS011;20504;43.214;27.920;2023-01-28T12:34:03;33.15;;;17.40;;
34242;SDS011;20504;43.214;27.920;2023-01-28T12:45:24;32.15;;;18.20;;
34242;SDS011;20504;43.214;27.920;2023-01-28T12:48:01;28.25;;;15.75;;
34242;SDS011;20504;43.214;27.920;2023-01-28T12:50:38;41.90;;;22.70;;
34242;SDS011;20504;43.214;27.920;2023-01-28T12:53:22;39.65;;;23.92;;
34242;SDS011;20504;43.214;27.920;2023-01-28T12:56:07;28.45;;;17.58;;
34242;SDS011;20504;43.214;27.920;2023-01-28T12:58:44;32.38;;;17.40;;
34242;SDS011;20504;43.214;27.920;2023-01-28T13:01:41;34.13;;;18.40;;
34242;SDS011;20504;43.214;27.920;2023-01-28T13:04:17;32.33;;;17.55;;
34242;SDS011;20504;43.214;27.920;2023-01-28T13:06:49;28.90;;;17.25;;
34242;SDS011;20504;43.214;27.920;2023-01-28T13:09:21;33.03;;;19.15;;
34242;SDS011;20504;43.214;27.920;2023-01-28T13:11:49;31.73;;;18.33;;
34242;SDS011;20504;43.214;27.920;2023-01-28T13:14:17;37.08;;;17.38;;
34242;SDS011;20504;43.214;27.920;2023-01-28T13:16:52;34.88;;;17.50;;
34242;SDS011;20504;43.214;27.920;2023-01-28T13:21:43;24.73;;;14.03;;
34242;SDS011;20504;43.214;27.920;2023-01-28T13:31:40;29.50;;;17.88;;
34242;SDS011;20504;43.214;27.920;2023-01-28T13:37:22;35.65;;;18.35;;
34242;SDS011;20504;43.214;27.920;2023-01-28T13:39:58;31.80;;;18.25;;
34242;SDS011;20504;43.214;27.920;2023-01-28T13:42:45;43.50;;;22.92;;
34242;SDS011;20504;43.214;27.920;2023-01-28T13:47:53;39.53;;;22.13;;
34242;SDS011;20504;43.214;27.920;2023-01-28T13:50:36;36.22;;;20.67;;
34242;SDS011;20504;43.214;27.920;2023-01-28T13:55:48;46.17;;;26.58;;
34242;SDS011;20504;43.214;27.920;2023-01-28T13:58:24;37.00;;;20.63;;
34242;SDS011;20504;43.214;27.920;2023-01-28T14:08:51;33.35;;;18.13;;
34242;SDS011;20504;43.214;27.920;2023-01-28T14:11:26;35.63;;;19.10;;
34242;SDS011;20504;43.214;27.920;2023-01-28T14:19:55;43.30;;;20.20;;
34242;SDS011;20504;43.214;27.920;2023-01-28T14:22:22;31.50;;;17.80;;
34242;SDS011;20504;43.214;27.920;2023-01-28T14:24:48;42.90;;;24.83;;
34242;SDS011;20504;43.214;27.920;2023-01-28T14:27:16;36.67;;;19.60;;
34242;SDS011;20504;43.214;27.920;2023-01-28T14:32:49;37.28;;;20.10;;
34242;SDS011;20504;43.214;27.920;2023-01-28T14:35:29;37.58;;;19.17;;
34242;SDS011;20504;43.214;27.920;2023-01-28T14:37:57;41.03;;;19.95;;
34242;SDS011;20504;43.214;27.920;2023-01-28T14:40:25;38.92;;;19.58;;
34242;SDS011;20504;43.214;27.920;2023-01-28T14:42:53;33.38;;;18.60;;
34242;SDS011;20504;43.214;27.920;2023-01-28T15:01:44;40.03;;;18.52;;
34242;SDS011;20504;43.214;27.920;2023-01-28T15:04:24;39.95;;;20.30;;
34242;SDS011;20504;43.214;27.920;2023-01-28T15:06:54;38.97;;;20.08;;
34242;SDS011;20504;43.214;27.920;2023-01-28T15:09:20;35.73;;;19.20;;
34242;SDS011;20504;43.214;27.920;2023-01-28T15:11:46;33.47;;;17.98;;
34242;SDS011;20504;43.214;27.920;2023-01-28T15:14:17;30.77;;;17.10;;
34242;SDS011;20504;43.214;27.920;2023-01-28T15:16:49;36.30;;;18.63;;
34242;SDS011;20504;43.214;27.920;2023-01-28T15:19:15;33.63;;;17.93;;
34242;SDS011;20504;43.214;27.920;2023-01-28T15:21:44;37.97;;;19.65;;
34242;SDS011;20504;43.214;27.920;2023-01-28T15:24:11;40.85;;;19.52;;
34242;SDS011;20504;43.214;27.920;2023-01-28T15:26:38;36.70;;;19.85;;
34242;SDS011;20504;43.214;27.920;2023-01-28T15:29:04;32.83;;;19.77;;
34242;SDS011;20504;43.214;27.920;2023-01-28T15:31:34;35.13;;;18.73;;
34242;SDS011;20504;43.214;27.920;2023-01-28T15:34:12;35.13;;;18.15;;
34242;SDS011;20504;43.214;27.920;2023-01-28T15:36:40;37.50;;;18.58;;
34242;SDS011;20504;43.214;27.920;2023-01-28T15:39:15;35.85;;;18.83;;
34242;SDS011;20504;43.214;27.920;2023-01-28T15:41:44;43.88;;;20.33;;
34242;SDS011;20504;43.214;27.920;2023-01-28T15:44:24;41.65;;;22.67;;
34242;SDS011;20504;43.214;27.920;2023-01-28T15:47:00;34.45;;;18.88;;
34242;SDS011;20504;43.214;27.920;2023-01-28T15:49:34;37.67;;;18.63;;
34242;SDS011;20504;43.214;27.920;2023-01-28T15:52:02;35.97;;;20.20;;
34242;SDS011;20504;43.214;27.920;2023-01-28T15:54:28;51.22;;;25.13;;
34242;SDS011;20504;43.214;27.920;2023-01-28T15:59:27;38.00;;;19.88;;
34242;SDS011;20504;43.214;27.920;2023-01-28T16:04:42;40.47;;;20.63;;
34242;SDS011;20504;43.214;27.920;2023-01-28T16:07:08;40.80;;;20.60;;
34242;SDS011;20504;43.214;27.920;2023-01-28T16:09:34;38.80;;;21.58;;
34242;SDS011;20504;43.214;27.920;2023-01-28T16:12:04;42.33;;;21.48;;
34242;SDS011;20504;43.214;27.920;2023-01-28T16:14:34;38.95;;;20.83;;
34242;SDS011;20504;43.214;27.920;2023-01-28T16:17:07;43.42;;;22.38;;
34242;SDS011;20504;43.214;27.920;2023-01-28T16:19:39;38.47;;;20.98;;
34242;SDS011;20504;43.214;27.920;2023-01-28T16:22:07;43.97;;;22.38;;
34242;SDS011;20504;43.214;27.920;2023-01-28T16:24:49;42.85;;;19.73;;
34242;SDS011;20504;43.214;27.920;2023-01-28T16:27:24;40.90;;;19.63;;
34242;SDS011;20504;43.214;27.920;2023-01-28T16:29:51;37.47;;;20.20;;
34242;SDS011;20504;43.214;27.920;2023-01-28T16:34:57;41.47;;;20.52;;
34242;SDS011;20504;43.214;27.920;2023-01-28T16:37:23;45.35;;;25.90;;
34242;SDS011;20504;43.214;27.920;2023-01-28T16:39:48;38.40;;;21.33;;
34242;SDS011;20504;43.214;27.920;2023-01-28T16:42:14;34.30;;;18.67;;
34242;SDS011;20504;43.214;27.920;2023-01-28T16:44:39;38.60;;;20.27;;
34242;SDS011;20504;43.214;27.920;2023-01-28T16:47:05;40.07;;;19.13;;
34242;SDS011;20504;43.214;27.920;2023-01-28T16:49:32;36.45;;;19.67;;
34242;SDS011;20504;43.214;27.920;2023-01-28T16:51:57;39.37;;;20.23;;
34242;SDS011;20504;43.214;27.920;2023-01-28T16:54:23;40.90;;;19.27;;
34242;SDS011;20504;43.214;27.920;2023-01-28T16:56:48;39.63;;;19.77;;
34242;SDS011;20504;43.214;27.920;2023-01-28T16:59:14;44.95;;;21.00;;
34242;SDS011;20504;43.214;27.920;2023-01-28T17:01:41;40.78;;;20.85;;
34242;SDS011;20504;43.214;27.920;2023-01-28T17:04:11;45.80;;;21.77;;
34242;SDS011;20504;43.214;27.920;2023-01-28T17:06:36;46.47;;;21.20;;
34242;SDS011;20504;43.214;27.920;2023-01-28T17:09:05;45.97;;;21.05;;